createdAt,value
2016-12-24T00:00:43.705Z,981.52
2016-12-24T00:01:43.701Z,981.54
2016-12-24T00:02:43.694Z,981.53
2016-12-24T00:03:43.693Z,981.51
2016-12-24T00:04:43.689Z,981.49
2016-12-24T00:05:43.685Z,981.45
2016-12-24T00:06:43.681Z,981.4
2016-12-24T00:07:43.682Z,981.35
2016-12-24T00:08:43.678Z,981.3
2016-12-24T00:09:43.669Z,981.22
2016-12-24T00:10:43.669Z,981.16
2016-12-24T00:11:43.666Z,981.16
2016-12-24T00:12:43.658Z,981.09
2016-12-24T00:13:43.658Z,981.09
2016-12-24T00:14:43.658Z,981.11
2016-12-24T00:15:43.654Z,981.13
2016-12-24T00:16:43.646Z,981.12
2016-12-24T00:17:43.646Z,981.11
2016-12-24T00:18:43.642Z,981.1
2016-12-24T00:19:43.634Z,981.09
2016-12-24T00:20:43.635Z,981.1
2016-12-24T00:21:43.634Z,981.1
2016-12-24T00:22:43.630Z,981.11
2016-12-24T00:23:43.622Z,981.15
2016-12-24T00:24:43.623Z,981.13
2016-12-24T00:25:43.618Z,981.09
2016-12-24T00:26:43.611Z,981.09
2016-12-24T00:27:43.611Z,981.13
2016-12-24T00:28:43.606Z,981.16
2016-12-24T00:29:43.599Z,981.2
2016-12-24T00:30:43.599Z,981.16
2016-12-24T00:31:43.599Z,981.07
2016-12-24T00:32:43.595Z,981.03
2016-12-24T00:33:43.587Z,981.04
2016-12-24T00:34:43.587Z,981.07
2016-12-24T00:35:43.583Z,981.13
2016-12-24T00:36:43.581Z,981.21
2016-12-24T00:37:43.571Z,981.24
2016-12-24T00:38:43.571Z,981.21
2016-12-24T00:39:43.567Z,981.13
2016-12-24T00:40:43.567Z,981.07
2016-12-24T00:41:43.563Z,981.09
2016-12-24T00:42:43.559Z,981.11
2016-12-24T00:43:43.551Z,981.18
2016-12-24T00:44:43.551Z,981.21
2016-12-24T00:45:43.547Z,981.2
2016-12-24T00:46:43.540Z,981.22
2016-12-24T00:47:43.540Z,981.21
2016-12-24T00:48:43.539Z,981.22
2016-12-24T00:49:43.531Z,981.16
2016-12-24T00:50:43.531Z,981.14
2016-12-24T00:51:43.527Z,981.11
2016-12-24T00:52:43.524Z,981.15
2016-12-24T00:53:43.516Z,981.14
2016-12-24T00:54:43.517Z,981.16
2016-12-24T00:55:43.511Z,981.17
2016-12-24T00:56:43.504Z,981.21
2016-12-24T00:57:43.500Z,981.32
2016-12-24T00:58:43.500Z,981.34
2016-12-24T00:59:43.500Z,981.3
2016-12-24T01:00:43.497Z,981.33
2016-12-24T01:01:43.492Z,981.37
2016-12-24T01:02:43.488Z,981.38
2016-12-24T01:03:43.484Z,981.39
2016-12-24T01:04:43.476Z,981.43
2016-12-24T01:05:43.476Z,981.37
2016-12-24T01:06:43.476Z,981.36
2016-12-24T01:07:43.464Z,981.39
2016-12-24T01:08:43.464Z,981.4
2016-12-24T01:09:43.464Z,981.49
2016-12-24T01:10:43.460Z,981.46
2016-12-24T01:11:43.453Z,981.49
2016-12-24T01:12:43.452Z,981.51
2016-12-24T01:13:43.448Z,981.54
2016-12-24T01:14:43.441Z,981.51
2016-12-24T01:15:43.441Z,981.59
2016-12-24T01:16:43.440Z,981.59
2016-12-24T01:17:43.436Z,981.58
2016-12-24T01:18:43.429Z,981.61
2016-12-24T01:19:43.428Z,981.61
2016-12-24T01:20:43.424Z,981.58
2016-12-24T01:21:43.417Z,981.56
2016-12-24T01:22:43.417Z,981.6
2016-12-24T01:23:43.412Z,981.63
2016-12-24T01:24:43.408Z,981.61
2016-12-24T01:25:43.405Z,981.6
2016-12-24T01:26:43.401Z,981.58
2016-12-24T01:27:43.400Z,981.6
2016-12-24T01:28:43.393Z,981.56
2016-12-24T01:29:43.393Z,981.56
2016-12-24T01:30:43.389Z,981.52
2016-12-24T01:31:43.637Z,981.54
2016-12-24T01:32:43.381Z,981.55
2016-12-24T01:33:43.377Z,981.53
2016-12-24T01:34:43.373Z,981.56
2016-12-24T01:35:43.369Z,981.63
2016-12-24T01:36:43.369Z,981.62
2016-12-24T01:37:43.365Z,981.66
2016-12-24T01:38:43.361Z,981.67
2016-12-24T01:39:43.357Z,981.7
2016-12-24T01:40:43.353Z,981.71
2016-12-24T01:41:43.345Z,981.71
2016-12-24T01:42:43.341Z,981.74
2016-12-24T01:43:43.345Z,981.68
2016-12-24T01:44:43.337Z,981.7
2016-12-24T01:45:43.333Z,981.67
2016-12-24T01:46:43.333Z,981.65
2016-12-24T01:47:43.329Z,981.71
2016-12-24T01:48:43.322Z,981.65
2016-12-24T01:49:43.321Z,981.64
2016-12-24T01:50:43.317Z,981.67
2016-12-24T01:51:43.314Z,981.67
2016-12-24T01:52:43.306Z,981.66
2016-12-24T01:53:43.310Z,981.7
2016-12-24T01:54:43.305Z,981.7
2016-12-24T01:55:43.301Z,981.67
2016-12-24T01:56:43.299Z,981.64
2016-12-24T01:57:43.293Z,981.65
2016-12-24T01:58:43.285Z,981.71
2016-12-24T01:59:43.281Z,981.72
2016-12-24T02:00:43.285Z,981.74
2016-12-24T02:01:43.281Z,981.78
2016-12-24T02:02:43.274Z,981.76
2016-12-24T02:03:43.274Z,981.76
2016-12-24T02:04:43.269Z,981.75
2016-12-24T02:05:43.261Z,981.76
2016-12-24T02:06:43.261Z,981.8
2016-12-24T02:07:43.256Z,981.85
2016-12-24T02:08:43.251Z,981.89
2016-12-24T02:09:43.244Z,981.89
2016-12-24T02:10:43.248Z,981.88
2016-12-24T02:11:43.244Z,981.91
2016-12-24T02:12:43.236Z,981.91
2016-12-24T02:13:43.236Z,981.91
2016-12-24T02:14:43.231Z,981.91
2016-12-24T02:15:43.224Z,981.93
2016-12-24T02:16:43.224Z,981.95
2016-12-24T02:17:43.220Z,981.96
2016-12-24T02:18:43.212Z,981.98
2016-12-24T02:19:43.212Z,981.92
2016-12-24T02:20:43.212Z,981.94
2016-12-24T02:21:43.208Z,981.95
2016-12-24T02:22:43.204Z,981.97
2016-12-24T02:23:43.200Z,981.95
2016-12-24T02:24:43.198Z,981.97
2016-12-24T02:25:43.188Z,981.97
2016-12-24T02:26:43.188Z,981.92
2016-12-24T02:27:43.184Z,981.99
2016-12-24T02:28:43.180Z,981.98
2016-12-24T02:29:43.180Z,982.01
2016-12-24T02:30:43.176Z,981.97
2016-12-24T02:31:43.168Z,981.99
2016-12-24T02:32:43.168Z,982
2016-12-24T02:33:43.164Z,982.01
2016-12-24T02:34:43.156Z,981.98
2016-12-24T02:35:43.156Z,982.03
2016-12-24T02:36:43.152Z,982.03
2016-12-24T02:37:43.148Z,982
2016-12-24T02:38:43.144Z,982.01
2016-12-24T02:39:43.144Z,982
2016-12-24T02:40:43.140Z,982
2016-12-24T02:41:43.132Z,982
2016-12-24T02:42:43.132Z,981.99
2016-12-24T02:43:43.128Z,981.96
2016-12-24T02:44:43.124Z,981.95
2016-12-24T02:45:43.120Z,981.95
2016-12-24T02:46:43.115Z,981.98
2016-12-24T02:47:43.108Z,981.94
2016-12-24T02:48:43.112Z,981.95
2016-12-24T02:49:43.104Z,981.97
2016-12-24T02:50:43.100Z,981.97
2016-12-24T02:51:43.100Z,981.98
2016-12-24T02:52:43.096Z,981.95
2016-12-24T02:53:43.088Z,981.95
2016-12-24T02:54:43.106Z,981.97
2016-12-24T02:55:43.085Z,981.99
2016-12-24T02:56:43.077Z,981.99
2016-12-24T02:57:43.077Z,981.99
2016-12-24T02:58:43.069Z,982.03
2016-12-24T02:59:43.069Z,982.04
2016-12-24T03:00:43.069Z,982.01
2016-12-24T03:01:43.061Z,982.02
2016-12-24T03:02:43.057Z,982
2016-12-24T03:03:43.057Z,982.05
2016-12-24T03:04:43.053Z,982.06
2016-12-24T03:05:43.049Z,982.09
2016-12-24T03:06:43.045Z,982.03
2016-12-24T03:07:43.038Z,982.01
2016-12-24T03:08:43.037Z,982.03
2016-12-24T03:09:43.037Z,982.03
2016-12-24T03:10:43.030Z,981.97
2016-12-24T03:11:43.030Z,981.98
2016-12-24T03:12:43.025Z,981.98
2016-12-24T03:13:43.019Z,981.97
2016-12-24T03:14:43.018Z,982
2016-12-24T03:15:43.013Z,982.03
2016-12-24T03:16:43.006Z,982.06
2016-12-24T03:17:43.006Z,982.01
2016-12-24T03:18:42.998Z,981.97
2016-12-24T03:19:42.998Z,982.03
2016-12-24T03:20:42.998Z,982.02
2016-12-24T03:21:42.993Z,981.94
2016-12-24T03:22:42.990Z,981.94
2016-12-24T03:23:42.986Z,981.96
2016-12-24T03:24:42.978Z,981.99
2016-12-24T03:25:42.977Z,982.03
2016-12-24T03:26:42.974Z,982
2016-12-24T03:27:42.966Z,982
2016-12-24T03:28:42.966Z,982.07
2016-12-24T03:29:42.962Z,982.04
2016-12-24T03:30:42.958Z,982.06
2016-12-24T03:31:42.958Z,982.05
2016-12-24T03:32:42.954Z,982.06
2016-12-24T03:33:42.946Z,982.08
2016-12-24T03:34:42.946Z,982.01
2016-12-24T03:35:42.942Z,982.01
2016-12-24T03:36:42.939Z,982.04
2016-12-24T03:37:42.935Z,982.01
2016-12-24T03:38:42.927Z,982.07
2016-12-24T03:39:42.931Z,982.05
2016-12-24T03:40:42.923Z,982.05
2016-12-24T03:41:42.919Z,982.04
2016-12-24T03:42:42.919Z,982.01
2016-12-24T03:43:42.916Z,982.05
2016-12-24T03:44:42.911Z,982.01
2016-12-24T03:45:42.907Z,982
2016-12-24T03:46:42.900Z,981.98
2016-12-24T03:47:42.899Z,981.97
2016-12-24T03:48:42.895Z,981.97
2016-12-24T03:49:42.887Z,981.96
2016-12-24T03:50:42.891Z,981.91
2016-12-24T03:51:42.883Z,981.91
2016-12-24T03:52:42.883Z,981.88
2016-12-24T03:53:42.879Z,981.86
2016-12-24T03:54:42.871Z,981.85
2016-12-24T03:55:42.872Z,981.82
2016-12-24T03:56:42.867Z,981.83
2016-12-24T03:57:42.864Z,981.87
2016-12-24T03:58:42.859Z,981.81
2016-12-24T03:59:42.852Z,981.81
2016-12-24T04:00:42.848Z,981.79
2016-12-24T04:01:42.847Z,981.75
2016-12-24T04:02:42.844Z,981.67
2016-12-24T04:03:42.844Z,981.64
2016-12-24T04:04:42.840Z,981.68
2016-12-24T04:05:42.836Z,981.7
2016-12-24T04:06:42.832Z,981.74
2016-12-24T04:07:42.824Z,981.83
2016-12-24T04:08:42.824Z,981.83
2016-12-24T04:09:42.821Z,981.8
2016-12-24T04:10:42.816Z,981.79
2016-12-24T04:11:42.812Z,981.77
2016-12-24T04:12:42.805Z,981.79
2016-12-24T04:13:42.805Z,981.79
2016-12-24T04:14:42.797Z,981.74
2016-12-24T04:15:42.801Z,981.75
2016-12-24T04:16:42.796Z,981.7
2016-12-24T04:17:42.789Z,981.71
2016-12-24T04:18:42.789Z,981.7
2016-12-24T04:19:42.785Z,981.66
2016-12-24T04:20:42.781Z,981.65
2016-12-24T04:21:42.777Z,981.6
2016-12-24T04:22:42.769Z,981.53
2016-12-24T04:23:42.769Z,981.55
2016-12-24T04:24:42.761Z,981.58
2016-12-24T04:25:42.761Z,981.58
2016-12-24T04:26:42.753Z,981.6
2016-12-24T04:27:42.757Z,981.59
2016-12-24T04:28:42.749Z,981.54
2016-12-24T04:29:42.746Z,981.53
2016-12-24T04:30:42.746Z,981.54
2016-12-24T04:31:42.738Z,981.53
2016-12-24T04:32:42.733Z,981.48
2016-12-24T04:33:42.733Z,981.54
2016-12-24T04:34:42.730Z,981.64
2016-12-24T04:35:42.726Z,981.6
2016-12-24T04:36:42.722Z,981.64
2016-12-24T04:37:42.718Z,981.65
2016-12-24T04:38:42.710Z,981.61
2016-12-24T04:39:42.710Z,981.58
2016-12-24T04:40:42.706Z,981.58
2016-12-24T04:41:42.702Z,981.59
2016-12-24T04:42:42.702Z,981.56
2016-12-24T04:43:42.695Z,981.57
2016-12-24T04:44:42.694Z,981.54
2016-12-24T04:45:42.686Z,981.59
2016-12-24T04:46:42.686Z,981.57
2016-12-24T04:47:42.683Z,981.55
2016-12-24T04:48:42.679Z,981.58
2016-12-24T04:49:42.674Z,981.59
2016-12-24T04:50:42.667Z,981.6
2016-12-24T04:51:42.667Z,981.55
2016-12-24T04:52:42.659Z,981.54
2016-12-24T04:53:42.663Z,981.55
2016-12-24T04:54:42.651Z,981.54
2016-12-24T04:55:42.655Z,981.54
2016-12-24T04:56:42.651Z,981.54
2016-12-24T04:57:42.647Z,981.52
2016-12-24T04:58:42.643Z,981.52
2016-12-24T04:59:42.636Z,981.59
2016-12-24T05:00:42.635Z,981.55
2016-12-24T05:01:42.627Z,981.53
2016-12-24T05:02:42.627Z,981.56
2016-12-24T05:03:42.623Z,981.55
2016-12-24T05:04:42.619Z,981.51
2016-12-24T05:05:42.612Z,981.49
2016-12-24T05:06:42.616Z,981.47
2016-12-24T05:07:42.612Z,981.42
2016-12-24T05:08:42.608Z,981.46
2016-12-24T05:09:42.604Z,981.47
2016-12-24T05:10:42.600Z,981.49
2016-12-24T05:11:42.596Z,981.5
2016-12-24T05:12:42.592Z,981.52
2016-12-24T05:13:42.588Z,981.55
2016-12-24T05:14:42.580Z,981.58
2016-12-24T05:15:42.580Z,981.55
2016-12-24T05:16:42.577Z,981.48
2016-12-24T05:17:42.574Z,981.47
2016-12-24T05:18:42.569Z,981.46
2016-12-24T05:19:42.564Z,981.44
2016-12-24T05:20:42.561Z,981.43
2016-12-24T05:21:42.557Z,981.41
2016-12-24T05:22:42.553Z,981.4
2016-12-24T05:23:42.548Z,981.39
2016-12-24T05:24:42.545Z,981.32
2016-12-24T05:25:42.545Z,981.27
2016-12-24T05:26:42.541Z,981.28
2016-12-24T05:27:42.537Z,981.22
2016-12-24T05:28:42.533Z,981.24
2016-12-24T05:29:42.529Z,981.22
2016-12-24T05:30:42.525Z,981.27
2016-12-24T05:31:42.521Z,981.22
2016-12-24T05:32:42.517Z,981.25
2016-12-24T05:33:42.510Z,981.31
2016-12-24T05:34:42.509Z,981.29
2016-12-24T05:35:42.502Z,981.31
2016-12-24T05:36:42.501Z,981.25
2016-12-24T05:37:42.493Z,981.23
2016-12-24T05:38:42.494Z,981.21
2016-12-24T05:39:42.491Z,981.21
2016-12-24T05:40:42.490Z,981.19
2016-12-24T05:41:42.483Z,981.17
2016-12-24T05:42:42.478Z,981.24
2016-12-24T05:43:42.474Z,981.21
2016-12-24T05:44:42.474Z,981.24
2016-12-24T05:45:42.470Z,981.27
2016-12-24T05:46:42.466Z,981.28
2016-12-24T05:47:42.462Z,981.32
2016-12-24T05:48:42.455Z,981.27
2016-12-24T05:49:42.454Z,981.31
2016-12-24T05:50:42.447Z,981.31
2016-12-24T05:51:42.446Z,981.36
2016-12-24T05:52:42.442Z,981.36
2016-12-24T05:53:42.438Z,981.38
2016-12-24T05:54:42.434Z,981.4
2016-12-24T05:55:42.430Z,981.46
2016-12-24T05:56:42.427Z,981.47
2016-12-24T05:57:42.419Z,981.48
2016-12-24T05:58:42.418Z,981.46
2016-12-24T05:59:42.411Z,981.52
2016-12-24T06:00:42.411Z,981.49
2016-12-24T06:01:42.407Z,981.43
2016-12-24T06:02:42.399Z,981.44
2016-12-24T06:03:42.399Z,981.46
2016-12-24T06:04:42.391Z,981.45
2016-12-24T06:05:42.403Z,981.41
2016-12-24T06:06:42.387Z,981.41
2016-12-24T06:07:42.387Z,981.43
2016-12-24T06:08:42.379Z,981.46
2016-12-24T06:09:42.379Z,981.43
2016-12-24T06:10:42.375Z,981.45
2016-12-24T06:11:42.368Z,981.45
2016-12-24T06:12:42.367Z,981.42
2016-12-24T06:13:42.363Z,981.4
2016-12-24T06:14:42.359Z,981.42
2016-12-24T06:15:42.355Z,981.4
2016-12-24T06:16:42.348Z,981.41
2016-12-24T06:17:42.347Z,981.46
2016-12-24T06:18:42.344Z,981.47
2016-12-24T06:19:42.336Z,981.44
2016-12-24T06:20:42.336Z,981.48
2016-12-24T06:21:42.328Z,981.5
2016-12-24T06:22:42.328Z,981.46
2016-12-24T06:23:42.324Z,981.45
2016-12-24T06:24:42.316Z,981.42
2016-12-24T06:25:42.316Z,981.37
2016-12-24T06:26:42.310Z,981.39
2016-12-24T06:27:42.304Z,981.35
2016-12-24T06:28:42.304Z,981.32
2016-12-24T06:29:42.300Z,981.3
2016-12-24T06:30:42.297Z,981.31
2016-12-24T06:31:42.292Z,981.29
2016-12-24T06:32:42.284Z,981.26
2016-12-24T06:33:42.284Z,981.29
2016-12-24T06:34:42.280Z,981.33
2016-12-24T06:35:42.272Z,981.33
2016-12-24T06:36:42.272Z,981.3
2016-12-24T06:37:42.268Z,981.34
2016-12-24T06:38:42.261Z,981.38
2016-12-24T06:39:42.260Z,981.36
2016-12-24T06:40:42.261Z,981.35
2016-12-24T06:41:42.256Z,981.37
2016-12-24T06:42:42.252Z,981.4
2016-12-24T06:43:42.249Z,981.39
2016-12-24T06:44:42.241Z,981.43
2016-12-24T06:45:42.241Z,981.42
2016-12-24T06:46:42.237Z,981.44
2016-12-24T06:47:42.229Z,981.41
2016-12-24T06:48:42.229Z,981.38
2016-12-24T06:49:42.225Z,981.42
2016-12-24T06:50:42.217Z,981.44
2016-12-24T06:51:42.217Z,981.43
2016-12-24T06:52:42.213Z,981.45
2016-12-24T06:53:42.205Z,981.41
2016-12-24T06:54:42.205Z,981.36
2016-12-24T06:55:42.201Z,981.42
2016-12-24T06:56:42.197Z,981.39
2016-12-24T06:57:42.196Z,981.42
2016-12-24T06:58:42.189Z,981.42
2016-12-24T06:59:42.181Z,981.37
2016-12-24T07:00:42.178Z,981.32
2016-12-24T07:01:42.178Z,981.3
2016-12-24T07:02:42.176Z,981.32
2016-12-24T07:03:42.166Z,981.35
2016-12-24T07:04:42.165Z,981.32
2016-12-24T07:05:42.161Z,981.33
2016-12-24T07:06:42.154Z,981.31
2016-12-24T07:07:42.153Z,981.25
2016-12-24T07:08:42.146Z,981.24
2016-12-24T07:09:42.142Z,981.26
2016-12-24T07:10:42.141Z,981.27
2016-12-24T07:11:42.137Z,981.26
2016-12-24T07:12:42.134Z,981.26
2016-12-24T07:13:42.130Z,981.29
2016-12-24T07:14:42.126Z,981.3
2016-12-24T07:15:42.122Z,981.28
2016-12-24T07:16:42.117Z,981.34
2016-12-24T07:17:42.114Z,981.37
2016-12-24T07:18:42.106Z,981.38
2016-12-24T07:19:42.105Z,981.36
2016-12-24T07:20:42.125Z,981.38
2016-12-24T07:21:42.101Z,981.35
2016-12-24T07:22:42.094Z,981.35
2016-12-24T07:23:42.090Z,981.36
2016-12-24T07:24:42.086Z,981.34
2016-12-24T07:25:42.078Z,981.38
2016-12-24T07:26:42.078Z,981.33
2016-12-24T07:27:42.073Z,981.29
2016-12-24T07:28:42.070Z,981.29
2016-12-24T07:29:42.066Z,981.32
2016-12-24T07:30:42.062Z,981.36
2016-12-24T07:31:42.058Z,981.37
2016-12-24T07:32:42.054Z,981.39
2016-12-24T07:33:42.050Z,981.45
2016-12-24T07:34:42.046Z,981.38
2016-12-24T07:35:42.042Z,981.38
2016-12-24T07:36:42.034Z,981.42
2016-12-24T07:37:42.034Z,981.38
2016-12-24T07:38:42.032Z,981.37
2016-12-24T07:39:42.027Z,981.4
2016-12-24T07:40:42.022Z,981.39
2016-12-24T07:41:42.018Z,981.41
2016-12-24T07:42:42.011Z,981.43
2016-12-24T07:43:42.015Z,981.43
2016-12-24T07:44:42.007Z,981.49
2016-12-24T07:45:42.002Z,981.55
2016-12-24T07:46:42.003Z,981.56
2016-12-24T07:47:41.998Z,981.58
2016-12-24T07:48:41.995Z,981.59
2016-12-24T07:49:41.991Z,981.59
2016-12-24T07:50:41.986Z,981.62
2016-12-24T07:51:41.983Z,981.62
2016-12-24T07:52:41.975Z,981.6
2016-12-24T07:53:41.975Z,981.61
2016-12-24T07:54:41.971Z,981.61
2016-12-24T07:55:41.967Z,981.62
2016-12-24T07:56:41.963Z,981.64
2016-12-24T07:57:41.955Z,981.7
2016-12-24T07:58:41.955Z,981.69
2016-12-24T07:59:41.952Z,981.66
2016-12-24T08:00:41.947Z,981.67
2016-12-24T08:01:41.943Z,981.64
2016-12-24T08:02:41.935Z,981.6
2016-12-24T08:03:41.935Z,981.58
2016-12-24T08:04:41.927Z,981.58
2016-12-24T08:05:41.927Z,981.67
2016-12-24T08:06:41.923Z,981.64
2016-12-24T08:07:41.919Z,981.7
2016-12-24T08:08:41.911Z,981.67
2016-12-24T08:09:41.915Z,981.67
2016-12-24T08:10:41.907Z,981.7
2016-12-24T08:11:41.903Z,981.73
2016-12-24T08:12:41.899Z,981.79
2016-12-24T08:13:41.899Z,981.88
2016-12-24T08:14:41.895Z,981.88
2016-12-24T08:15:41.891Z,981.93
2016-12-24T08:16:41.887Z,981.92
2016-12-24T08:17:41.883Z,981.94
2016-12-24T08:18:41.879Z,981.94
2016-12-24T08:19:41.875Z,981.95
2016-12-24T08:20:41.871Z,981.93
2016-12-24T08:21:41.867Z,981.94
2016-12-24T08:22:41.863Z,981.98
2016-12-24T08:23:41.863Z,982
2016-12-24T08:24:41.855Z,981.98
2016-12-24T08:25:41.855Z,982.02
2016-12-24T08:26:41.847Z,981.96
2016-12-24T08:27:41.847Z,981.98
2016-12-24T08:28:41.843Z,982.01
2016-12-24T08:29:41.839Z,982.05
2016-12-24T08:30:41.835Z,982.08
2016-12-24T08:31:41.828Z,982.11
2016-12-24T08:32:41.828Z,982.12
2016-12-24T08:33:41.820Z,982.13
2016-12-24T08:34:41.819Z,982.12
2016-12-24T08:35:41.815Z,982.11
2016-12-24T08:36:41.808Z,982.07
2016-12-24T08:37:42.008Z,982.11
2016-12-24T08:38:41.807Z,982.11
2016-12-24T08:39:41.804Z,982.12
2016-12-24T08:40:41.799Z,982.12
2016-12-24T08:41:41.796Z,982.1
2016-12-24T08:42:41.788Z,982.11
2016-12-24T08:43:41.788Z,982.11
2016-12-24T08:44:41.783Z,982.09
2016-12-24T08:45:41.780Z,982.09
2016-12-24T08:46:41.780Z,982.08
2016-12-24T08:47:41.775Z,982.04
2016-12-24T08:48:41.772Z,982
2016-12-24T08:49:41.768Z,982
2016-12-24T08:50:41.764Z,982.02
2016-12-24T08:51:41.760Z,982.06
2016-12-24T08:52:41.756Z,982.11
2016-12-24T08:53:41.748Z,982.09
2016-12-24T08:54:41.752Z,982.14
2016-12-24T08:55:41.748Z,982.12
2016-12-24T08:56:41.744Z,982.12
2016-12-24T08:57:41.740Z,982.17
2016-12-24T08:58:41.736Z,982.22
2016-12-24T08:59:41.728Z,982.22
2016-12-24T09:00:41.728Z,982.25
2016-12-24T09:01:41.728Z,982.22
2016-12-24T09:02:41.724Z,982.21
2016-12-24T09:03:41.720Z,982.2
2016-12-24T09:04:41.716Z,982.25
2016-12-24T09:05:41.713Z,982.24
2016-12-24T09:06:41.704Z,982.25
2016-12-24T09:07:41.701Z,982.25
2016-12-24T09:08:41.701Z,982.24
2016-12-24T09:09:41.697Z,982.19
2016-12-24T09:10:41.697Z,982.17
2016-12-24T09:11:41.693Z,982.19
2016-12-24T09:12:41.689Z,982.19
2016-12-24T09:13:41.685Z,982.22
2016-12-24T09:14:41.685Z,982.27
2016-12-24T09:15:41.681Z,982.32
2016-12-24T09:16:41.677Z,982.31
2016-12-24T09:17:41.673Z,982.31
2016-12-24T09:18:41.668Z,982.36
2016-12-24T09:19:41.669Z,982.32
2016-12-24T09:20:41.661Z,982.28
2016-12-24T09:21:41.661Z,982.29
2016-12-24T09:22:41.657Z,982.24
2016-12-24T09:23:41.653Z,982.24
2016-12-24T09:24:41.649Z,982.23
2016-12-24T09:25:41.645Z,982.3
2016-12-24T09:26:41.645Z,982.29
2016-12-24T09:27:41.641Z,982.25
2016-12-24T09:28:41.637Z,982.24
2016-12-24T09:29:41.633Z,982.27
2016-12-24T09:30:41.629Z,982.32
2016-12-24T09:31:41.629Z,982.31
2016-12-24T09:32:41.626Z,982.35
2016-12-24T09:33:41.621Z,982.32
2016-12-24T09:34:41.617Z,982.28
2016-12-24T09:35:41.613Z,982.21
2016-12-24T09:36:41.613Z,982.26
2016-12-24T09:37:41.609Z,982.18
2016-12-24T09:38:41.605Z,982.23
2016-12-24T09:39:41.601Z,982.21
2016-12-24T09:40:41.598Z,982.23
2016-12-24T09:41:41.598Z,982.22
2016-12-24T09:42:41.593Z,982.2
2016-12-24T09:43:41.590Z,982.17
2016-12-24T09:44:41.582Z,982.1
2016-12-24T09:45:41.578Z,982.05
2016-12-24T09:46:41.574Z,982.07
2016-12-24T09:47:41.578Z,981.96
2016-12-24T09:48:41.574Z,981.95
2016-12-24T09:49:41.570Z,981.96
2016-12-24T09:50:41.569Z,981.96
2016-12-24T09:51:41.562Z,981.86
2016-12-24T09:52:41.558Z,981.84
2016-12-24T09:53:41.559Z,981.75
2016-12-24T09:54:41.558Z,981.74
2016-12-24T09:55:41.554Z,981.76
2016-12-24T09:56:41.546Z,981.65
2016-12-24T09:57:41.542Z,981.65
2016-12-24T09:58:41.546Z,981.57
2016-12-24T09:59:41.538Z,981.51
2016-12-24T10:00:41.534Z,981.51
2016-12-24T10:01:41.534Z,981.45
2016-12-24T10:02:41.530Z,981.42
2016-12-24T10:03:41.530Z,981.37
2016-12-24T10:04:41.526Z,981.34
2016-12-24T10:05:41.522Z,981.35
2016-12-24T10:06:41.523Z,981.3
2016-12-24T10:07:41.514Z,981.23
2016-12-24T10:08:41.511Z,981.25
2016-12-24T10:09:41.515Z,981.3
2016-12-24T10:10:41.507Z,981.33
2016-12-24T10:11:41.511Z,981.37
2016-12-24T10:12:41.503Z,981.42
2016-12-24T10:13:41.503Z,981.49
2016-12-24T10:14:41.499Z,981.5
2016-12-24T10:15:41.495Z,981.48
2016-12-24T10:16:41.491Z,981.43
2016-12-24T10:17:41.491Z,981.38
2016-12-24T10:18:41.487Z,981.32
2016-12-24T10:19:41.487Z,981.32
2016-12-24T10:20:41.479Z,981.24
2016-12-24T10:21:41.479Z,981.21
2016-12-24T10:22:41.471Z,981.14
2016-12-24T10:23:41.475Z,981.08
2016-12-24T10:24:41.467Z,981.09
2016-12-24T10:25:41.471Z,981.07
2016-12-24T10:26:41.463Z,981.11
2016-12-24T10:27:41.463Z,981.08
2016-12-24T10:28:41.455Z,981.06
2016-12-24T10:29:41.459Z,981.1
2016-12-24T10:30:41.455Z,981.09
2016-12-24T10:31:41.451Z,981.1
2016-12-24T10:32:41.451Z,981.14
2016-12-24T10:33:41.447Z,981.1
2016-12-24T10:34:41.443Z,981.11
2016-12-24T10:35:41.443Z,981.1
2016-12-24T10:36:41.439Z,981.1
2016-12-24T10:37:41.435Z,981.13
2016-12-24T10:38:41.435Z,981.16
2016-12-24T10:39:41.428Z,981.15
2016-12-24T10:40:41.427Z,981.15
2016-12-24T10:41:41.424Z,981.08
2016-12-24T10:42:41.423Z,981.06
2016-12-24T10:43:41.415Z,981.12
2016-12-24T10:44:41.415Z,981.11
2016-12-24T10:45:41.415Z,981.12
2016-12-24T10:46:41.411Z,981.12
2016-12-24T10:47:41.407Z,981.08
2016-12-24T10:48:41.403Z,981.09
2016-12-24T10:49:41.404Z,981.13
2016-12-24T10:50:41.395Z,981.14
2016-12-24T10:51:41.399Z,981.14
2016-12-24T10:52:41.395Z,981.11
2016-12-24T10:53:41.391Z,981.19
2016-12-24T10:54:41.388Z,981.2
2016-12-24T10:55:41.387Z,981.22
2016-12-24T10:56:41.384Z,981.2
2016-12-24T10:57:41.380Z,981.17
2016-12-24T10:58:41.379Z,981.14
2016-12-24T10:59:41.376Z,981.13
2016-12-24T11:00:41.371Z,981.07
2016-12-24T11:01:41.364Z,981.04
2016-12-24T11:02:41.367Z,981.03
2016-12-24T11:03:41.360Z,981.05
2016-12-24T11:04:41.359Z,980.98
2016-12-24T11:05:41.360Z,981
2016-12-24T11:06:41.356Z,980.92
2016-12-24T11:07:41.352Z,980.92
2016-12-24T11:08:41.344Z,980.89
2016-12-24T11:09:41.348Z,980.88
2016-12-24T11:10:41.344Z,980.82
2016-12-24T11:11:41.340Z,980.82
2016-12-24T11:12:41.340Z,980.76
2016-12-24T11:13:41.337Z,980.76
2016-12-24T11:14:41.332Z,980.7
2016-12-24T11:15:41.328Z,980.71
2016-12-24T11:16:41.328Z,980.7
2016-12-24T11:17:41.324Z,980.77
2016-12-24T11:18:41.320Z,980.73
2016-12-24T11:19:41.312Z,980.74
2016-12-24T11:20:41.316Z,980.75
2016-12-24T11:21:41.312Z,980.79
2016-12-24T11:22:41.308Z,980.75
2016-12-24T11:23:41.308Z,980.75
2016-12-24T11:24:41.300Z,980.72
2016-12-24T11:25:41.300Z,980.72
2016-12-24T11:26:41.300Z,980.75
2016-12-24T11:27:41.292Z,980.78
2016-12-24T11:28:41.293Z,980.78
2016-12-24T11:29:41.288Z,980.75
2016-12-24T11:30:41.285Z,980.72
2016-12-24T11:31:41.285Z,980.7
2016-12-24T11:32:41.280Z,980.71
2016-12-24T11:33:41.276Z,980.74
2016-12-24T11:34:41.276Z,980.78
2016-12-24T11:35:41.274Z,980.83
2016-12-24T11:36:41.268Z,980.82
2016-12-24T11:37:41.268Z,980.81
2016-12-24T11:38:41.260Z,980.8
2016-12-24T11:39:41.260Z,980.79
2016-12-24T11:40:41.256Z,980.81
2016-12-24T11:41:41.252Z,980.72
2016-12-24T11:42:41.252Z,980.66
2016-12-24T11:43:41.248Z,980.6
2016-12-24T11:44:41.239Z,980.56
2016-12-24T11:45:41.244Z,980.45
2016-12-24T11:46:41.239Z,980.46
2016-12-24T11:47:41.232Z,980.34
2016-12-24T11:48:41.232Z,980.36
2016-12-24T11:49:41.231Z,980.35
2016-12-24T11:50:41.223Z,980.39
2016-12-24T11:51:41.223Z,980.44
2016-12-24T11:52:41.223Z,980.53
2016-12-24T11:53:41.219Z,980.58
2016-12-24T11:54:41.215Z,980.59
2016-12-24T11:55:41.207Z,980.62
2016-12-24T11:56:41.211Z,980.61
2016-12-24T11:57:41.207Z,980.67
2016-12-24T11:58:41.199Z,980.69
2016-12-24T11:59:41.203Z,980.68
2016-12-24T12:00:41.199Z,980.65
2016-12-24T12:01:41.195Z,980.67
2016-12-24T12:02:41.193Z,980.69
2016-12-24T12:03:41.188Z,980.76
2016-12-24T12:04:41.187Z,980.69
2016-12-24T12:05:41.183Z,980.69
2016-12-24T12:06:41.179Z,980.7
2016-12-24T12:07:41.179Z,980.63
2016-12-24T12:08:41.175Z,980.59
2016-12-24T12:09:41.172Z,980.6
2016-12-24T12:10:41.171Z,980.55
2016-12-24T12:11:41.167Z,980.53
2016-12-24T12:12:41.163Z,980.55
2016-12-24T12:13:41.159Z,980.57
2016-12-24T12:14:41.159Z,980.57
2016-12-24T12:15:41.151Z,980.58
2016-12-24T12:16:41.151Z,980.55
2016-12-24T12:17:41.151Z,980.65
2016-12-24T12:18:41.147Z,980.68
2016-12-24T12:19:41.143Z,980.73
2016-12-24T12:20:41.139Z,980.74
2016-12-24T12:21:41.139Z,980.66
2016-12-24T12:22:41.135Z,980.54
2016-12-24T12:23:41.127Z,980.52
2016-12-24T12:24:41.131Z,980.5
2016-12-24T12:25:41.127Z,980.58
2016-12-24T12:26:41.123Z,980.55
2016-12-24T12:27:41.119Z,980.5
2016-12-24T12:28:41.119Z,980.55
2016-12-24T12:29:41.115Z,980.58
2016-12-24T12:30:41.112Z,980.51
2016-12-24T12:31:41.104Z,980.51